Pagrindinis puslapis
METAR-TAF:

METAR-TAF

Oro uostai :

Joensū, Suomija

platuma: 62-40N, ilguma: 029-38E, Aukštis: 119 m

Dabartinis oras

Ataskaita buvo paskelbta 15 minutes, ne 20:50 UTC
Vėjas 5 kt iš Pietų
Temperatūra 17°C
Drėgmė 63%
Slėgis 1019 hPa
Matomumas 10 km arba daugiau
nėra debesų žemiau 1500 m ir nėra kamuolinių lietaus debesų

METAR: EFJO 172050Z AUTO 17005KT CAVOK 17/10 Q1019

Laikas: 00:05 (21:05 UTC)

Prognozė

Ataskaita buvo paskelbta 42 minutes, ne 20:23 UTC
Prognozė galioja nuo 17 metu 21 UTC su 17 metu 24 UTC
Vėjas 8 kt iš Pietų/Pietvakarių
Matomumas 10 km arba daugiau
nėra debesų žemiau 1500 m ir nėra kamuolinių lietaus debesų

TAF: EFJO 172023Z 1721/1724 20008KT CAVOK

Orai ataskaitas ir orų prognozės (METAR, TAF).

turimą stotys yra geltonos ir raudonos taškus žemėlapyje.

Perkelti pele per norėdami pamatyti stoties vardą.

Tada spustelėkite, norėdami matyti oro stebėjimo ir prognozės.

Norėdami pakeisti žemėlapį: spustelėkite ant žalios mygtukų su juodo kryžiaus žemyn,; žalią mygtuką su brūkšneliu, jei norite nutolinti; arba žalių rodyklių gretimoms žemėlapius.


METAR-TAF: